Charlottesville (CHO/KCHO)

Map

Destinations

Information

Location
Charlottesville, VA
Local Time
13:03 / 1:03 pm
GMT Time
18:03 / 6:03 pm
Gates
Unassigned
No FAA reported delays
METAR KCHO 191753Z 31009G17KT 10SM CLR 12/M02 A2977 RMK AO2 SLP076 T01221022 10122 20094 50009
TAF KCHO 191722Z 1918/2018 30014G25KT P6SM FEW060 SCT250 FM192300 28010KT P6SM FEW060 SCT200 FM200200 26006KT P6SM FEW060 SCT250 FM201500 22006KT P6SM FEW250